sensor_id;sensor_type;location;lat;lon;timestamp;P1;durP1;ratioP1;P2;durP2;ratioP2
545;SDS011;259;53.304;9.816;2024-01-11T00:01:03;2.43;;;2.30;;
545;SDS011;259;53.304;9.816;2024-01-11T00:03:29;2.70;;;2.50;;
545;SDS011;259;53.304;9.816;2024-01-11T00:05:55;4.07;;;3.63;;
545;SDS011;259;53.304;9.816;2024-01-11T00:08:20;4.20;;;2.57;;
545;SDS011;259;53.304;9.816;2024-01-11T00:10:46;3.13;;;2.90;;
545;SDS011;259;53.304;9.816;2024-01-11T00:13:12;4.20;;;3.00;;
545;SDS011;259;53.304;9.816;2024-01-11T00:15:37;3.90;;;3.03;;
545;SDS011;259;53.304;9.816;2024-01-11T00:18:03;3.20;;;3.00;;
545;SDS011;259;53.304;9.816;2024-01-11T00:20:29;4.03;;;2.77;;
545;SDS011;259;53.304;9.816;2024-01-11T00:22:54;3.60;;;3.30;;
545;SDS011;259;53.304;9.816;2024-01-11T00:25:20;3.43;;;3.03;;
545;SDS011;259;53.304;9.816;2024-01-11T00:27:46;3.10;;;2.80;;
545;SDS011;259;53.304;9.816;2024-01-11T00:30:12;4.23;;;3.23;;
545;SDS011;259;53.304;9.816;2024-01-11T00:32:38;3.10;;;2.90;;
545;SDS011;259;53.304;9.816;2024-01-11T00:35:04;3.20;;;2.90;;
545;SDS011;259;53.304;9.816;2024-01-11T00:37:30;3.77;;;3.47;;
545;SDS011;259;53.304;9.816;2024-01-11T00:39:56;6.80;;;3.53;;
545;SDS011;259;53.304;9.816;2024-01-11T00:42:22;4.50;;;3.47;;
545;SDS011;259;53.304;9.816;2024-01-11T00:44:47;3.83;;;3.37;;
545;SDS011;259;53.304;9.816;2024-01-11T00:47:14;4.73;;;3.10;;
545;SDS011;259;53.304;9.816;2024-01-11T00:49:40;4.90;;;3.23;;
545;SDS011;259;53.304;9.816;2024-01-11T00:52:05;3.50;;;3.17;;
545;SDS011;259;53.304;9.816;2024-01-11T00:54:31;3.77;;;3.50;;
545;SDS011;259;53.304;9.816;2024-01-11T00:56:57;3.53;;;3.23;;
545;SDS011;259;53.304;9.816;2024-01-11T00:59:22;5.50;;;3.30;;
545;SDS011;259;53.304;9.816;2024-01-11T01:01:48;3.63;;;3.33;;
545;SDS011;259;53.304;9.816;2024-01-11T01:04:15;4.33;;;3.90;;
545;SDS011;259;53.304;9.816;2024-01-11T01:06:41;4.23;;;3.93;;
545;SDS011;259;53.304;9.816;2024-01-11T01:09:07;3.53;;;3.27;;
545;SDS011;259;53.304;9.816;2024-01-11T01:11:33;4.10;;;3.80;;
545;SDS011;259;53.304;9.816;2024-01-11T01:13:58;4.90;;;3.97;;
545;SDS011;259;53.304;9.816;2024-01-11T01:16:24;5.40;;;4.17;;
545;SDS011;259;53.304;9.816;2024-01-11T01:18:50;3.97;;;3.77;;
545;SDS011;259;53.304;9.816;2024-01-11T01:21:15;3.80;;;3.60;;
545;SDS011;259;53.304;9.816;2024-01-11T01:23:41;5.07;;;4.67;;
545;SDS011;259;53.304;9.816;2024-01-11T01:26:07;4.60;;;4.10;;
545;SDS011;259;53.304;9.816;2024-01-11T01:28:32;5.27;;;4.50;;
545;SDS011;259;53.304;9.816;2024-01-11T01:30:58;5.00;;;4.50;;
545;SDS011;259;53.304;9.816;2024-01-11T01:33:24;4.50;;;4.10;;
545;SDS011;259;53.304;9.816;2024-01-11T01:35:49;4.90;;;4.47;;
545;SDS011;259;53.304;9.816;2024-01-11T01:38:15;4.90;;;4.57;;
545;SDS011;259;53.304;9.816;2024-01-11T01:40:42;5.17;;;4.67;;
545;SDS011;259;53.304;9.816;2024-01-11T01:43:09;4.90;;;4.60;;
545;SDS011;259;53.304;9.816;2024-01-11T01:45:35;5.17;;;4.67;;
545;SDS011;259;53.304;9.816;2024-01-11T01:48:01;4.90;;;4.60;;
545;SDS011;259;53.304;9.816;2024-01-11T01:50:27;5.40;;;5.00;;
545;SDS011;259;53.304;9.816;2024-01-11T01:52:53;6.00;;;5.50;;
545;SDS011;259;53.304;9.816;2024-01-11T01:55:21;5.70;;;5.30;;
545;SDS011;259;53.304;9.816;2024-01-11T01:57:48;4.97;;;4.67;;
545;SDS011;259;53.304;9.816;2024-01-11T02:00:15;6.00;;;5.40;;
545;SDS011;259;53.304;9.816;2024-01-11T02:02:43;5.60;;;5.20;;
545;SDS011;259;53.304;9.816;2024-01-11T02:05:10;6.50;;;5.90;;
545;SDS011;259;53.304;9.816;2024-01-11T02:07:38;5.20;;;4.80;;
545;SDS011;259;53.304;9.816;2024-01-11T02:10:05;5.37;;;4.97;;
545;SDS011;259;53.304;9.816;2024-01-11T02:12:32;5.03;;;4.53;;
545;SDS011;259;53.304;9.816;2024-01-11T02:15:01;5.03;;;4.70;;
545;SDS011;259;53.304;9.816;2024-01-11T02:17:28;5.40;;;5.00;;
545;SDS011;259;53.304;9.816;2024-01-11T02:19:55;5.57;;;5.17;;
545;SDS011;259;53.304;9.816;2024-01-11T02:22:26;5.73;;;5.33;;
545;SDS011;259;53.304;9.816;2024-01-11T02:24:57;6.03;;;5.63;;
545;SDS011;259;53.304;9.816;2024-01-11T02:27:23;6.63;;;6.13;;
545;SDS011;259;53.304;9.816;2024-01-11T02:29:49;6.13;;;5.63;;
545;SDS011;259;53.304;9.816;2024-01-11T02:32:15;5.43;;;5.03;;
545;SDS011;259;53.304;9.816;2024-01-11T02:34:40;5.67;;;5.27;;
545;SDS011;259;53.304;9.816;2024-01-11T02:37:06;6.27;;;5.73;;
545;SDS011;259;53.304;9.816;2024-01-11T02:39:32;5.97;;;5.47;;
545;SDS011;259;53.304;9.816;2024-01-11T02:41:59;6.00;;;5.50;;
545;SDS011;259;53.304;9.816;2024-01-11T02:44:25;5.87;;;5.37;;
545;SDS011;259;53.304;9.816;2024-01-11T02:46:50;5.87;;;5.47;;
545;SDS011;259;53.304;9.816;2024-01-11T02:49:16;5.67;;;5.37;;
545;SDS011;259;53.304;9.816;2024-01-11T02:51:42;6.70;;;6.10;;
545;SDS011;259;53.304;9.816;2024-01-11T02:54:07;6.30;;;5.90;;
545;SDS011;259;53.304;9.816;2024-01-11T02:56:33;6.40;;;5.90;;
545;SDS011;259;53.304;9.816;2024-01-11T02:58:59;5.63;;;5.23;;
545;SDS011;259;53.304;9.816;2024-01-11T03:01:25;5.33;;;4.93;;
545;SDS011;259;53.304;9.816;2024-01-11T03:03:50;5.50;;;5.03;;
545;SDS011;259;53.304;9.816;2024-01-11T03:06:16;6.10;;;5.70;;
545;SDS011;259;53.304;9.816;2024-01-11T03:08:46;6.07;;;5.67;;
545;SDS011;259;53.304;9.816;2024-01-11T03:11:15;5.73;;;5.27;;
545;SDS011;259;53.304;9.816;2024-01-11T03:13:41;6.60;;;6.10;;
545;SDS011;259;53.304;9.816;2024-01-11T03:16:07;5.73;;;5.33;;
545;SDS011;259;53.304;9.816;2024-01-11T03:18:33;6.10;;;5.60;;
545;SDS011;259;53.304;9.816;2024-01-11T03:20:59;5.60;;;5.20;;
545;SDS011;259;53.304;9.816;2024-01-11T03:23:24;6.13;;;5.73;;
545;SDS011;259;53.304;9.816;2024-01-11T03:25:50;5.67;;;5.17;;
545;SDS011;259;53.304;9.816;2024-01-11T03:28:16;5.43;;;5.03;;
545;SDS011;259;53.304;9.816;2024-01-11T03:30:41;6.10;;;5.67;;
545;SDS011;259;53.304;9.816;2024-01-11T03:33:08;6.43;;;5.93;;
545;SDS011;259;53.304;9.816;2024-01-11T03:35:33;5.73;;;5.33;;
545;SDS011;259;53.304;9.816;2024-01-11T03:37:59;4.70;;;4.33;;
545;SDS011;259;53.304;9.816;2024-01-11T03:40:25;6.17;;;5.67;;
545;SDS011;259;53.304;9.816;2024-01-11T03:42:51;6.00;;;5.50;;
545;SDS011;259;53.304;9.816;2024-01-11T03:45:17;5.30;;;4.80;;
545;SDS011;259;53.304;9.816;2024-01-11T03:47:46;5.77;;;5.17;;
545;SDS011;259;53.304;9.816;2024-01-11T03:50:12;5.47;;;5.07;;
545;SDS011;259;53.304;9.816;2024-01-11T03:52:39;5.83;;;5.37;;
545;SDS011;259;53.304;9.816;2024-01-11T03:55:05;5.10;;;4.70;;
545;SDS011;259;53.304;9.816;2024-01-11T03:57:31;5.47;;;5.07;;
545;SDS011;259;53.304;9.816;2024-01-11T03:59:57;5.30;;;4.90;;
545;SDS011;259;53.304;9.816;2024-01-11T04:02:23;5.60;;;5.20;;
545;SDS011;259;53.304;9.816;2024-01-11T04:04:50;5.53;;;5.20;;
545;SDS011;259;53.304;9.816;2024-01-11T04:07:15;4.77;;;4.47;;
545;SDS011;259;53.304;9.816;2024-01-11T04:09:42;4.63;;;4.33;;
545;SDS011;259;53.304;9.816;2024-01-11T04:12:07;5.13;;;4.80;;
545;SDS011;259;53.304;9.816;2024-01-11T04:14:33;5.43;;;5.07;;
545;SDS011;259;53.304;9.816;2024-01-11T04:17:03;5.10;;;4.80;;
545;SDS011;259;53.304;9.816;2024-01-11T04:19:28;5.20;;;4.80;;
545;SDS011;259;53.304;9.816;2024-01-11T04:21:54;4.70;;;4.30;;
545;SDS011;259;53.304;9.816;2024-01-11T04:24:20;5.07;;;4.67;;
545;SDS011;259;53.304;9.816;2024-01-11T04:26:45;4.70;;;4.37;;
545;SDS011;259;53.304;9.816;2024-01-11T04:29:11;4.70;;;4.30;;
545;SDS011;259;53.304;9.816;2024-01-11T04:31:37;4.87;;;4.57;;
545;SDS011;259;53.304;9.816;2024-01-11T04:34:02;5.50;;;5.20;;
545;SDS011;259;53.304;9.816;2024-01-11T04:36:28;4.87;;;4.47;;
545;SDS011;259;53.304;9.816;2024-01-11T04:38:54;4.53;;;4.23;;
545;SDS011;259;53.304;9.816;2024-01-11T04:41:19;5.00;;;4.60;;
545;SDS011;259;53.304;9.816;2024-01-11T04:43:45;5.00;;;4.70;;
545;SDS011;259;53.304;9.816;2024-01-11T04:46:14;4.70;;;4.30;;
545;SDS011;259;53.304;9.816;2024-01-11T04:48:44;4.67;;;4.37;;
545;SDS011;259;53.304;9.816;2024-01-11T04:51:12;5.00;;;4.70;;
545;SDS011;259;53.304;9.816;2024-01-11T04:53:39;4.63;;;4.33;;
545;SDS011;259;53.304;9.816;2024-01-11T04:56:06;4.50;;;4.20;;
545;SDS011;259;53.304;9.816;2024-01-11T04:58:33;6.13;;;4.53;;
545;SDS011;259;53.304;9.816;2024-01-11T05:01:00;4.90;;;4.60;;
545;SDS011;259;53.304;9.816;2024-01-11T05:03:25;4.13;;;3.83;;
545;SDS011;259;53.304;9.816;2024-01-11T05:05:51;4.90;;;4.60;;
545;SDS011;259;53.304;9.816;2024-01-11T05:08:17;4.80;;;4.40;;
545;SDS011;259;53.304;9.816;2024-01-11T05:10:42;6.10;;;4.20;;
545;SDS011;259;53.304;9.816;2024-01-11T05:13:09;4.83;;;4.43;;
545;SDS011;259;53.304;9.816;2024-01-11T05:15:35;4.20;;;3.80;;
545;SDS011;259;53.304;9.816;2024-01-11T05:18:01;4.73;;;4.33;;
545;SDS011;259;53.304;9.816;2024-01-11T05:20:26;4.63;;;4.33;;
545;SDS011;259;53.304;9.816;2024-01-11T05:22:52;4.10;;;3.80;;
545;SDS011;259;53.304;9.816;2024-01-11T05:25:18;3.73;;;3.53;;
545;SDS011;259;53.304;9.816;2024-01-11T05:27:43;4.27;;;3.97;;
545;SDS011;259;53.304;9.816;2024-01-11T05:30:09;4.83;;;4.20;;
545;SDS011;259;53.304;9.816;2024-01-11T05:32:35;3.90;;;3.60;;
545;SDS011;259;53.304;9.816;2024-01-11T05:35:01;4.73;;;4.33;;
545;SDS011;259;53.304;9.816;2024-01-11T05:37:26;4.10;;;3.80;;
545;SDS011;259;53.304;9.816;2024-01-11T05:39:52;4.33;;;4.03;;
545;SDS011;259;53.304;9.816;2024-01-11T05:42:19;3.97;;;3.70;;
545;SDS011;259;53.304;9.816;2024-01-11T05:44:45;4.37;;;4.07;;
545;SDS011;259;53.304;9.816;2024-01-11T05:47:10;4.23;;;3.93;;
545;SDS011;259;53.304;9.816;2024-01-11T05:49:36;4.00;;;3.60;;
545;SDS011;259;53.304;9.816;2024-01-11T05:52:02;3.70;;;3.50;;
545;SDS011;259;53.304;9.816;2024-01-11T05:54:28;4.10;;;3.80;;
545;SDS011;259;53.304;9.816;2024-01-11T05:56:54;4.63;;;4.03;;
545;SDS011;259;53.304;9.816;2024-01-11T05:59:24;4.23;;;3.93;;
545;SDS011;259;53.304;9.816;2024-01-11T06:01:50;3.73;;;3.50;;
545;SDS011;259;53.304;9.816;2024-01-11T06:04:16;4.70;;;4.30;;
545;SDS011;259;53.304;9.816;2024-01-11T06:06:41;4.33;;;3.90;;
545;SDS011;259;53.304;9.816;2024-01-11T06:09:07;3.77;;;3.47;;
545;SDS011;259;53.304;9.816;2024-01-11T06:11:33;4.00;;;3.70;;
545;SDS011;259;53.304;9.816;2024-01-11T06:13:59;4.27;;;3.70;;
545;SDS011;259;53.304;9.816;2024-01-11T06:16:26;4.60;;;4.20;;
545;SDS011;259;53.304;9.816;2024-01-11T06:18:52;3.93;;;3.63;;
545;SDS011;259;53.304;9.816;2024-01-11T06:21:17;3.90;;;3.60;;
545;SDS011;259;53.304;9.816;2024-01-11T06:23:43;4.50;;;4.20;;
545;SDS011;259;53.304;9.816;2024-01-11T06:26:09;4.33;;;4.03;;
545;SDS011;259;53.304;9.816;2024-01-11T06:28:35;4.37;;;3.97;;
545;SDS011;259;53.304;9.816;2024-01-11T06:31:01;4.40;;;4.10;;
545;SDS011;259;53.304;9.816;2024-01-11T06:33:27;4.60;;;4.20;;
545;SDS011;259;53.304;9.816;2024-01-11T06:35:53;4.03;;;3.77;;
545;SDS011;259;53.304;9.816;2024-01-11T06:38:19;4.33;;;3.93;;
545;SDS011;259;53.304;9.816;2024-01-11T06:40:44;4.23;;;3.93;;
545;SDS011;259;53.304;9.816;2024-01-11T06:43:10;3.93;;;3.63;;
545;SDS011;259;53.304;9.816;2024-01-11T06:45:36;4.77;;;4.37;;
545;SDS011;259;53.304;9.816;2024-01-11T06:48:02;4.37;;;3.97;;
545;SDS011;259;53.304;9.816;2024-01-11T06:50:28;4.10;;;3.80;;
545;SDS011;259;53.304;9.816;2024-01-11T06:52:54;4.03;;;3.70;;
545;SDS011;259;53.304;9.816;2024-01-11T06:55:19;4.07;;;3.67;;
545;SDS011;259;53.304;9.816;2024-01-11T06:57:48;4.73;;;4.33;;
545;SDS011;259;53.304;9.816;2024-01-11T07:00:14;4.20;;;3.90;;
545;SDS011;259;53.304;9.816;2024-01-11T07:02:40;4.37;;;4.07;;
545;SDS011;259;53.304;9.816;2024-01-11T07:05:06;4.10;;;3.70;;
545;SDS011;259;53.304;9.816;2024-01-11T07:07:32;4.00;;;3.70;;
545;SDS011;259;53.304;9.816;2024-01-11T07:09:58;3.87;;;3.53;;
545;SDS011;259;53.304;9.816;2024-01-11T07:12:24;4.70;;;4.03;;
545;SDS011;259;53.304;9.816;2024-01-11T07:14:53;3.40;;;3.20;;
545;SDS011;259;53.304;9.816;2024-01-11T07:17:18;3.60;;;3.30;;
545;SDS011;259;53.304;9.816;2024-01-11T07:19:44;4.40;;;4.10;;
545;SDS011;259;53.304;9.816;2024-01-11T07:22:09;6.03;;;4.30;;
545;SDS011;259;53.304;9.816;2024-01-11T07:24:35;4.30;;;3.90;;
545;SDS011;259;53.304;9.816;2024-01-11T07:27:05;4.10;;;3.80;;
545;SDS011;259;53.304;9.816;2024-01-11T07:29:31;3.90;;;3.60;;
545;SDS011;259;53.304;9.816;2024-01-11T07:31:58;3.50;;;3.20;;
545;SDS011;259;53.304;9.816;2024-01-11T07:34:24;4.17;;;3.87;;
545;SDS011;259;53.304;9.816;2024-01-11T07:36:51;4.67;;;3.90;;
545;SDS011;259;53.304;9.816;2024-01-11T07:39:17;4.57;;;4.27;;
545;SDS011;259;53.304;9.816;2024-01-11T07:41:43;4.17;;;3.87;;
545;SDS011;259;53.304;9.816;2024-01-11T07:44:09;4.30;;;3.90;;
545;SDS011;259;53.304;9.816;2024-01-11T07:46:34;3.37;;;3.17;;
545;SDS011;259;53.304;9.816;2024-01-11T07:49:01;4.20;;;3.80;;
545;SDS011;259;53.304;9.816;2024-01-11T07:51:30;4.47;;;4.00;;
545;SDS011;259;53.304;9.816;2024-01-11T07:53:56;4.17;;;3.87;;
545;SDS011;259;53.304;9.816;2024-01-11T07:56:21;4.10;;;3.80;;
545;SDS011;259;53.304;9.816;2024-01-11T07:58:47;4.00;;;3.70;;
545;SDS011;259;53.304;9.816;2024-01-11T08:01:14;3.77;;;3.37;;
545;SDS011;259;53.304;9.816;2024-01-11T08:03:41;5.23;;;4.00;;
545;SDS011;259;53.304;9.816;2024-01-11T08:06:07;3.80;;;3.40;;
545;SDS011;259;53.304;9.816;2024-01-11T08:08:39;4.80;;;4.30;;
545;SDS011;259;53.304;9.816;2024-01-11T08:11:07;4.63;;;4.13;;
545;SDS011;259;53.304;9.816;2024-01-11T08:13:32;4.47;;;4.17;;
545;SDS011;259;53.304;9.816;2024-01-11T08:16:00;4.40;;;4.10;;
545;SDS011;259;53.304;9.816;2024-01-11T08:18:28;6.50;;;4.10;;
545;SDS011;259;53.304;9.816;2024-01-11T08:20:55;4.63;;;4.23;;
545;SDS011;259;53.304;9.816;2024-01-11T08:23:20;4.90;;;4.50;;
545;SDS011;259;53.304;9.816;2024-01-11T08:25:46;3.70;;;3.40;;
545;SDS011;259;53.304;9.816;2024-01-11T08:28:12;3.30;;;3.10;;
545;SDS011;259;53.304;9.816;2024-01-11T08:30:38;4.10;;;3.80;;
545;SDS011;259;53.304;9.816;2024-01-11T08:33:03;4.03;;;3.73;;
545;SDS011;259;53.304;9.816;2024-01-11T08:35:29;3.83;;;3.53;;
545;SDS011;259;53.304;9.816;2024-01-11T08:37:57;3.67;;;3.17;;
545;SDS011;259;53.304;9.816;2024-01-11T08:40:23;3.90;;;3.60;;
545;SDS011;259;53.304;9.816;2024-01-11T08:42:49;3.30;;;3.10;;
545;SDS011;259;53.304;9.816;2024-01-11T08:45:14;3.43;;;3.13;;
545;SDS011;259;53.304;9.816;2024-01-11T08:47:43;4.00;;;3.70;;
545;SDS011;259;53.304;9.816;2024-01-11T08:50:13;3.30;;;3.10;;
545;SDS011;259;53.304;9.816;2024-01-11T08:52:40;5.03;;;3.93;;
545;SDS011;259;53.304;9.816;2024-01-11T08:55:07;5.03;;;3.70;;
545;SDS011;259;53.304;9.816;2024-01-11T08:57:33;4.00;;;3.70;;
545;SDS011;259;53.304;9.816;2024-01-11T09:00:02;3.53;;;3.23;;
545;SDS011;259;53.304;9.816;2024-01-11T09:02:31;3.50;;;3.20;;
545;SDS011;259;53.304;9.816;2024-01-11T09:04:57;3.90;;;3.60;;
545;SDS011;259;53.304;9.816;2024-01-11T09:07:22;3.00;;;2.77;;
545;SDS011;259;53.304;9.816;2024-01-11T09:09:48;3.63;;;3.33;;
545;SDS011;259;53.304;9.816;2024-01-11T09:12:14;3.83;;;2.90;;
545;SDS011;259;53.304;9.816;2024-01-11T09:14:39;3.47;;;3.20;;
545;SDS011;259;53.304;9.816;2024-01-11T09:17:05;3.40;;;3.10;;
545;SDS011;259;53.304;9.816;2024-01-11T09:19:33;3.30;;;3.00;;
545;SDS011;259;53.304;9.816;2024-01-11T09:21:59;4.20;;;3.80;;
545;SDS011;259;53.304;9.816;2024-01-11T09:24:25;3.30;;;3.00;;
545;SDS011;259;53.304;9.816;2024-01-11T09:26:51;3.90;;;3.63;;
545;SDS011;259;53.304;9.816;2024-01-11T09:29:17;7.60;;;4.17;;
545;SDS011;259;53.304;9.816;2024-01-11T09:31:42;9.70;;;3.90;;
545;SDS011;259;53.304;9.816;2024-01-11T09:34:08;9.33;;;5.80;;
545;SDS011;259;53.304;9.816;2024-01-11T09:36:34;8.07;;;4.57;;
545;SDS011;259;53.304;9.816;2024-01-11T09:39:00;7.23;;;3.80;;
545;SDS011;259;53.304;9.816;2024-01-11T09:41:25;7.13;;;3.80;;
545;SDS011;259;53.304;9.816;2024-01-11T09:43:52;8.30;;;4.13;;
545;SDS011;259;53.304;9.816;2024-01-11T09:46:22;5.97;;;4.10;;
545;SDS011;259;53.304;9.816;2024-01-11T09:48:49;7.83;;;4.43;;
545;SDS011;259;53.304;9.816;2024-01-11T09:51:17;6.23;;;4.03;;
545;SDS011;259;53.304;9.816;2024-01-11T09:53:43;8.23;;;4.40;;
545;SDS011;259;53.304;9.816;2024-01-11T09:56:09;5.00;;;4.50;;
545;SDS011;259;53.304;9.816;2024-01-11T09:58:35;4.70;;;4.30;;
545;SDS011;259;53.304;9.816;2024-01-11T10:01:02;6.90;;;4.50;;
545;SDS011;259;53.304;9.816;2024-01-11T10:03:28;5.33;;;4.53;;
545;SDS011;259;53.304;9.816;2024-01-11T10:05:54;4.30;;;3.87;;
545;SDS011;259;53.304;9.816;2024-01-11T10:08:23;5.50;;;4.00;;
545;SDS011;259;53.304;9.816;2024-01-11T10:10:50;4.13;;;3.83;;
545;SDS011;259;53.304;9.816;2024-01-11T10:13:16;5.27;;;4.87;;
545;SDS011;259;53.304;9.816;2024-01-11T10:15:45;4.97;;;4.20;;
545;SDS011;259;53.304;9.816;2024-01-11T10:18:11;4.60;;;4.20;;
545;SDS011;259;53.304;9.816;2024-01-11T10:20:37;6.53;;;4.30;;
545;SDS011;259;53.304;9.816;2024-01-11T10:23:03;6.13;;;4.70;;
545;SDS011;259;53.304;9.816;2024-01-11T10:25:29;7.73;;;4.97;;
545;SDS011;259;53.304;9.816;2024-01-11T10:27:55;13.80;;;4.90;;
545;SDS011;259;53.304;9.816;2024-01-11T10:30:20;8.17;;;5.17;;
545;SDS011;259;53.304;9.816;2024-01-11T10:32:48;10.80;;;5.47;;
545;SDS011;259;53.304;9.816;2024-01-11T10:35:14;7.50;;;4.17;;
545;SDS011;259;53.304;9.816;2024-01-11T10:37:43;6.80;;;4.90;;
545;SDS011;259;53.304;9.816;2024-01-11T10:40:09;6.20;;;4.67;;
545;SDS011;259;53.304;9.816;2024-01-11T10:42:44;5.30;;;4.53;;
545;SDS011;259;53.304;9.816;2024-01-11T10:45:15;5.83;;;5.03;;
545;SDS011;259;53.304;9.816;2024-01-11T10:47:53;6.10;;;5.00;;
545;SDS011;259;53.304;9.816;2024-01-11T10:50:22;5.70;;;4.77;;
545;SDS011;259;53.304;9.816;2024-01-11T10:55:35;5.57;;;4.93;;
545;SDS011;259;53.304;9.816;2024-01-11T10:58:02;4.47;;;4.07;;
545;SDS011;259;53.304;9.816;2024-01-11T11:00:29;6.37;;;4.27;;
545;SDS011;259;53.304;9.816;2024-01-11T11:02:58;4.47;;;4.07;;
545;SDS011;259;53.304;9.816;2024-01-11T11:05:25;6.53;;;4.37;;
545;SDS011;259;53.304;9.816;2024-01-11T11:07:54;7.03;;;4.50;;
545;SDS011;259;53.304;9.816;2024-01-11T11:10:21;6.10;;;4.80;;
545;SDS011;259;53.304;9.816;2024-01-11T11:12:48;4.90;;;4.50;;
545;SDS011;259;53.304;9.816;2024-01-11T11:15:14;5.03;;;4.63;;
545;SDS011;259;53.304;9.816;2024-01-11T11:17:40;5.70;;;4.57;;
545;SDS011;259;53.304;9.816;2024-01-11T11:20:10;5.47;;;4.97;;
545;SDS011;259;53.304;9.816;2024-01-11T11:22:42;4.70;;;4.23;;
545;SDS011;259;53.304;9.816;2024-01-11T11:25:13;4.80;;;4.40;;
545;SDS011;259;53.304;9.816;2024-01-11T11:27:50;5.20;;;4.70;;
545;SDS011;259;53.304;9.816;2024-01-11T11:30:18;5.10;;;4.70;;
545;SDS011;259;53.304;9.816;2024-01-11T11:32:45;5.13;;;4.67;;
545;SDS011;259;53.304;9.816;2024-01-11T11:35:11;6.20;;;5.50;;
545;SDS011;259;53.304;9.816;2024-01-11T11:37:38;5.60;;;5.10;;
545;SDS011;259;53.304;9.816;2024-01-11T11:40:05;5.67;;;5.17;;
545;SDS011;259;53.304;9.816;2024-01-11T11:42:36;4.83;;;4.33;;
545;SDS011;259;53.304;9.816;2024-01-11T11:45:02;5.97;;;5.37;;
545;SDS011;259;53.304;9.816;2024-01-11T11:47:35;5.77;;;5.23;;
545;SDS011;259;53.304;9.816;2024-01-11T11:52:37;9.03;;;5.50;;
545;SDS011;259;53.304;9.816;2024-01-11T11:55:04;5.53;;;5.03;;
545;SDS011;259;53.304;9.816;2024-01-11T11:57:33;5.90;;;5.40;;
545;SDS011;259;53.304;9.816;2024-01-11T11:59:59;5.30;;;4.83;;
545;SDS011;259;53.304;9.816;2024-01-11T12:02:30;6.37;;;5.77;;
545;SDS011;259;53.304;9.816;2024-01-11T12:04:56;5.97;;;5.47;;
545;SDS011;259;53.304;9.816;2024-01-11T12:07:22;7.07;;;5.40;;
545;SDS011;259;53.304;9.816;2024-01-11T12:09:48;5.33;;;4.50;;
545;SDS011;259;53.304;9.816;2024-01-11T12:12:15;5.20;;;4.77;;
545;SDS011;259;53.304;9.816;2024-01-11T12:14:42;5.73;;;5.13;;
545;SDS011;259;53.304;9.816;2024-01-11T12:17:08;5.17;;;4.70;;
545;SDS011;259;53.304;9.816;2024-01-11T12:19:34;5.73;;;5.23;;
545;SDS011;259;53.304;9.816;2024-01-11T12:22:00;5.97;;;5.47;;
545;SDS011;259;53.304;9.816;2024-01-11T12:24:25;6.07;;;5.50;;
545;SDS011;259;53.304;9.816;2024-01-11T12:26:51;6.23;;;5.27;;
545;SDS011;259;53.304;9.816;2024-01-11T12:29:18;5.97;;;5.47;;
545;SDS011;259;53.304;9.816;2024-01-11T12:31:45;6.40;;;5.40;;
545;SDS011;259;53.304;9.816;2024-01-11T12:34:13;8.80;;;6.40;;
545;SDS011;259;53.304;9.816;2024-01-11T12:36:39;7.23;;;6.63;;
545;SDS011;259;53.304;9.816;2024-01-11T12:39:05;6.10;;;5.50;;
545;SDS011;259;53.304;9.816;2024-01-11T12:41:32;6.20;;;5.70;;
545;SDS011;259;53.304;9.816;2024-01-11T12:43:58;5.87;;;5.30;;
545;SDS011;259;53.304;9.816;2024-01-11T12:46:24;5.77;;;5.27;;
545;SDS011;259;53.304;9.816;2024-01-11T12:48:50;6.30;;;5.80;;
545;SDS011;259;53.304;9.816;2024-01-11T12:51:16;6.73;;;5.80;;
545;SDS011;259;53.304;9.816;2024-01-11T12:53:46;6.97;;;6.00;;
545;SDS011;259;53.304;9.816;2024-01-11T12:56:14;6.40;;;5.70;;
545;SDS011;259;53.304;9.816;2024-01-11T12:58:41;7.27;;;6.57;;
545;SDS011;259;53.304;9.816;2024-01-11T13:01:08;5.77;;;5.27;;
545;SDS011;259;53.304;9.816;2024-01-11T13:03:34;6.97;;;6.17;;
545;SDS011;259;53.304;9.816;2024-01-11T13:06:01;6.87;;;6.30;;
545;SDS011;259;53.304;9.816;2024-01-11T13:08:29;6.10;;;5.70;;
545;SDS011;259;53.304;9.816;2024-01-11T13:10:56;7.37;;;6.67;;
545;SDS011;259;53.304;9.816;2024-01-11T13:13:22;5.73;;;5.23;;
545;SDS011;259;53.304;9.816;2024-01-11T13:15:48;6.57;;;6.07;;
545;SDS011;259;53.304;9.816;2024-01-11T13:18:15;6.57;;;5.77;;
545;SDS011;259;53.304;9.816;2024-01-11T13:20:41;6.60;;;6.00;;
545;SDS011;259;53.304;9.816;2024-01-11T13:25:45;6.30;;;5.70;;
545;SDS011;259;53.304;9.816;2024-01-11T13:28:14;6.33;;;5.47;;
545;SDS011;259;53.304;9.816;2024-01-11T13:30:40;7.40;;;6.80;;
545;SDS011;259;53.304;9.816;2024-01-11T13:33:08;5.73;;;5.23;;
545;SDS011;259;53.304;9.816;2024-01-11T13:35:38;6.33;;;5.77;;
545;SDS011;259;53.304;9.816;2024-01-11T13:38:05;5.70;;;5.20;;
545;SDS011;259;53.304;9.816;2024-01-11T13:40:31;6.20;;;5.70;;
545;SDS011;259;53.304;9.816;2024-01-11T13:42:58;6.57;;;5.97;;
545;SDS011;259;53.304;9.816;2024-01-11T13:45:24;7.13;;;6.53;;
545;SDS011;259;53.304;9.816;2024-01-11T13:47:51;6.87;;;6.17;;
545;SDS011;259;53.304;9.816;2024-01-11T13:50:21;6.93;;;6.40;;
545;SDS011;259;53.304;9.816;2024-01-11T13:52:50;6.97;;;6.37;;
545;SDS011;259;53.304;9.816;2024-01-11T13:55:16;6.40;;;5.90;;
545;SDS011;259;53.304;9.816;2024-01-11T13:57:43;6.57;;;6.00;;
545;SDS011;259;53.304;9.816;2024-01-11T14:00:09;6.87;;;6.27;;
545;SDS011;259;53.304;9.816;2024-01-11T14:02:38;7.27;;;6.57;;
545;SDS011;259;53.304;9.816;2024-01-11T14:05:05;7.07;;;6.47;;
545;SDS011;259;53.304;9.816;2024-01-11T14:07:34;7.07;;;6.40;;
545;SDS011;259;53.304;9.816;2024-01-11T14:10:00;6.83;;;6.17;;
545;SDS011;259;53.304;9.816;2024-01-11T14:12:26;5.93;;;5.40;;
545;SDS011;259;53.304;9.816;2024-01-11T14:14:51;6.47;;;5.87;;
545;SDS011;259;53.304;9.816;2024-01-11T14:17:17;6.73;;;6.10;;
545;SDS011;259;53.304;9.816;2024-01-11T14:19:43;6.07;;;5.57;;
545;SDS011;259;53.304;9.816;2024-01-11T14:22:09;6.83;;;6.23;;
545;SDS011;259;53.304;9.816;2024-01-11T14:24:34;6.63;;;6.03;;
545;SDS011;259;53.304;9.816;2024-01-11T14:27:00;6.67;;;6.10;;
545;SDS011;259;53.304;9.816;2024-01-11T14:29:26;7.57;;;6.87;;
545;SDS011;259;53.304;9.816;2024-01-11T14:31:52;7.10;;;6.47;;
545;SDS011;259;53.304;9.816;2024-01-11T14:34:18;6.70;;;6.00;;
545;SDS011;259;53.304;9.816;2024-01-11T14:36:43;7.03;;;6.37;;
545;SDS011;259;53.304;9.816;2024-01-11T14:39:09;7.00;;;6.30;;
545;SDS011;259;53.304;9.816;2024-01-11T14:41:35;7.20;;;6.50;;
545;SDS011;259;53.304;9.816;2024-01-11T14:44:02;7.17;;;6.47;;
545;SDS011;259;53.304;9.816;2024-01-11T14:46:28;6.43;;;5.83;;
545;SDS011;259;53.304;9.816;2024-01-11T14:48:55;6.67;;;6.17;;
545;SDS011;259;53.304;9.816;2024-01-11T14:51:20;6.80;;;6.20;;
545;SDS011;259;53.304;9.816;2024-01-11T14:53:46;7.53;;;6.90;;
545;SDS011;259;53.304;9.816;2024-01-11T14:56:12;7.27;;;6.57;;
545;SDS011;259;53.304;9.816;2024-01-11T14:58:37;6.80;;;6.20;;
545;SDS011;259;53.304;9.816;2024-01-11T15:01:03;6.47;;;5.87;;
545;SDS011;259;53.304;9.816;2024-01-11T15:03:29;6.73;;;6.13;;
545;SDS011;259;53.304;9.816;2024-01-11T15:05:55;7.13;;;6.53;;
545;SDS011;259;53.304;9.816;2024-01-11T15:08:21;7.33;;;6.63;;
545;SDS011;259;53.304;9.816;2024-01-11T15:10:47;7.10;;;6.47;;
545;SDS011;259;53.304;9.816;2024-01-11T15:13:13;6.77;;;6.17;;
545;SDS011;259;53.304;9.816;2024-01-11T15:15:39;6.93;;;6.23;;
545;SDS011;259;53.304;9.816;2024-01-11T15:18:06;7.57;;;6.90;;
545;SDS011;259;53.304;9.816;2024-01-11T15:20:31;6.33;;;5.80;;
545;SDS011;259;53.304;9.816;2024-01-11T15:22:57;6.53;;;5.93;;
545;SDS011;259;53.304;9.816;2024-01-11T15:25:23;7.27;;;6.57;;
545;SDS011;259;53.304;9.816;2024-01-11T15:27:51;7.80;;;7.03;;
545;SDS011;259;53.304;9.816;2024-01-11T15:30:18;6.33;;;5.73;;
545;SDS011;259;53.304;9.816;2024-01-11T15:32:44;7.40;;;6.70;;
545;SDS011;259;53.304;9.816;2024-01-11T15:35:09;6.37;;;5.77;;
545;SDS011;259;53.304;9.816;2024-01-11T15:37:37;6.87;;;6.23;;
545;SDS011;259;53.304;9.816;2024-01-11T15:40:03;6.83;;;6.23;;
545;SDS011;259;53.304;9.816;2024-01-11T15:42:31;7.33;;;6.63;;
545;SDS011;259;53.304;9.816;2024-01-11T15:44:56;7.33;;;6.63;;
545;SDS011;259;53.304;9.816;2024-01-11T15:47:22;6.30;;;5.70;;